Terminal Aerodrome Forecast
Issued by NWS

Home | Current Version | Previous Version | Text Only | Print | Product List | Glossary On
Versions: 1 2 3 4 5 6 7 8 9 10 11 12 13 14 15 16 17 18 19 20 21 22 23 24 25 26 27 28 29 30 31 32 33 34 35 36
103
FTUS41 KBTV 151725
TAFSLK
TAF
KSLK 151725Z 1518/1618 24008KT P6SM FEW120
     FM161000 15006KT P6SM FEW150
     FM161400 16012KT P6SM SCT180
     FM161700 16016KT P6SM BKN120=

USA.gov is the U.S. government's official web portal to all federal, state and local government web resources and services.